Time;durP1;ratioP1;P1;durP2;ratioP2;P2;SDS_P1;SDS_P2;PMS_P1;PMS_P2;Temp;Humidity;BMP_temperature;BMP_pressure;BME280_temperature;BME280_humidity;BME280_pressure;Samples;Min_cycle;Max_cycle;Signal;HPM_P1;HPM_P2
2022/12/13 00:01:38;;;;;;;;;;;-6.30;99.90;;;;;;5024081;28;19909;-57
2022/12/13 00:04:05;;;;;;;;;;;-6.30;99.90;;;;;;5026345;28;20025;-55
2022/12/13 00:06:31;;;;;;;;;;;-6.30;99.90;;;;;;5029239;28;19921;-54
2022/12/13 00:08:57;;;;;;;;;;;-6.30;99.90;;;;;;5029676;28;20007;-55
2022/12/13 00:11:23;;;;;;;;;;;-6.20;99.90;;;;;;5026435;28;19913;-55
2022/12/13 00:13:48;;;;;;;;;;;-6.20;99.90;;;;;;5042268;28;19921;-57
2022/12/13 00:16:15;;;;;;;;;;;-6.20;99.90;;;;;;5028941;28;19913;-53
2022/12/13 00:18:40;;;;;;;;;;;-6.10;99.90;;;;;;5022114;28;20002;-58
2022/12/13 00:21:07;;;;;;;;;;;-6.10;99.90;;;;;;5031017;28;19987;-54
2022/12/13 00:23:33;;;;;;;;;;;-6.10;99.90;;;;;;5028115;28;19913;-57
2022/12/13 00:26:05;;;;;;;;;;;-6.10;99.90;;;;;;5019094;28;19913;-56
2022/12/13 00:28:31;;;;;;;;;;;-6.10;99.90;;;;;;5021225;28;20403;-58
2022/12/13 00:31:00;;;;;;;;;;;-6.00;99.90;;;;;;5029965;28;19979;-57
2022/12/13 00:33:26;;;;;;;;;;;-6.00;99.90;;;;;;5020928;28;19925;-55
2022/12/13 00:35:51;;;;;;;;;;;-6.00;99.90;;;;;;5020809;28;19913;-57
2022/12/13 00:38:17;;;;;;;;;;;-6.00;99.90;;;;;;5029918;28;19920;-58
2022/12/13 00:40:42;;;;;;;;;;;-5.90;99.90;;;;;;5030135;28;19952;-55
2022/12/13 00:43:08;;;;;;;;;;;-5.90;99.90;;;;;;5028508;28;19920;-56
2022/12/13 00:45:33;;;;;;;;;;;-5.80;99.90;;;;;;5029020;28;20437;-57
2022/12/13 00:47:59;;;;;;;;;;;-5.80;99.90;;;;;;5023168;28;19917;-57
2022/12/13 00:50:25;;;;;;;;;;;-5.80;99.90;;;;;;5026483;28;20008;-56
2022/12/13 00:52:50;;;;;;;;;;;-5.80;99.90;;;;;;5038480;28;20027;-57
2022/12/13 00:55:16;;;;;;;;;;;-5.80;99.90;;;;;;5028482;28;19924;-57
2022/12/13 00:57:41;;;;;;;;;;;-5.70;99.90;;;;;;5028590;28;20268;-56
2022/12/13 01:00:07;;;;;;;;;;;-5.70;99.90;;;;;;5027792;28;20608;-55
2022/12/13 01:02:33;;;;;;;;;;;-5.70;99.90;;;;;;5029521;28;19928;-57
2022/12/13 01:04:58;;;;;;;;;;;-5.70;99.90;;;;;;5027641;28;19913;-57
2022/12/13 01:07:24;;;;;;;;;;;-5.60;99.90;;;;;;5022758;28;19949;-56
2022/12/13 01:09:49;;;;;;;;;;;-5.60;99.90;;;;;;5023202;28;19916;-55
2022/12/13 01:12:16;;;;;;;;;;;-5.60;99.90;;;;;;5020977;28;19948;-57
2022/12/13 01:14:41;;;;;;;;;;;-5.60;99.90;;;;;;5025330;28;20359;-57
2022/12/13 01:17:06;;;;;;;;;;;-5.50;99.90;;;;;;5026702;28;20025;-53
2022/12/13 01:19:32;;;;;;;;;;;-5.50;99.90;;;;;;5028657;28;19974;-56
2022/12/13 01:21:59;;;;;;;;;;;-5.50;99.90;;;;;;5027552;28;19921;-57
2022/12/13 01:24:25;;;;;;;;;;;-5.50;99.90;;;;;;5029544;28;20007;-57
2022/12/13 01:26:51;;;;;;;;;;;-5.50;99.90;;;;;;5022443;28;20016;-57
2022/12/13 01:29:17;;;;;;;;;;;-5.50;99.90;;;;;;5019207;28;19913;-56
2022/12/13 01:31:43;;;;;;;;;;;-5.40;99.90;;;;;;5026762;28;19913;-57
2022/12/13 01:34:11;;;;;;;;;;;-5.40;99.90;;;;;;5042653;28;19913;-56
2022/12/13 01:36:38;;;;;;;;;;;-5.40;99.90;;;;;;5027343;28;19924;-57
2022/12/13 01:39:03;;;;;;;;;;;-5.40;99.90;;;;;;5029004;28;19913;-58
2022/12/13 01:41:30;;;;;;;;;;;-5.40;99.90;;;;;;5029461;28;20414;-57
2022/12/13 01:43:59;;;;;;;;;;;-5.40;99.90;;;;;;5021940;28;19917;-57
2022/12/13 01:46:25;;;;;;;;;;;-5.40;99.90;;;;;;5023459;28;19971;-57
2022/12/13 01:48:59;;;;;;;;;;;-5.50;99.90;;;;;;5025854;28;20361;-54
2022/12/13 01:51:31;;;;;;;;;;;-5.50;99.90;;;;;;5025714;28;20465;-58
2022/12/13 01:53:59;;;;;;;;;;;-5.50;99.90;;;;;;5024571;28;19914;-56
2022/12/13 01:56:46;;;;;;;;;;;-5.60;99.90;;;;;;5023924;28;19920;-58
2022/12/13 01:59:11;;;;;;;;;;;-5.60;99.90;;;;;;5021754;28;19917;-57
2022/12/13 02:01:37;;;;;;;;;;;-5.60;99.90;;;;;;5023514;28;20491;-57
2022/12/13 02:04:03;;;;;;;;;;;-5.70;99.90;;;;;;5019249;28;19909;-57
2022/12/13 02:06:32;;;;;;;;;;;-5.60;99.90;;;;;;5029564;28;19956;-54
2022/12/13 02:08:57;;;;;;;;;;;-5.60;99.90;;;;;;5025517;28;19999;-56
2022/12/13 02:11:23;;;;;;;;;;;-5.60;99.90;;;;;;5023793;28;20272;-57
2022/12/13 02:13:49;;;;;;;;;;;-5.60;99.90;;;;;;5024391;28;19980;-57
2022/12/13 02:16:25;;;;;;;;;;;-5.60;99.90;;;;;;5022301;28;19913;-58
2022/12/13 02:19:03;;;;;;;;;;;-5.60;99.90;;;;;;5021649;28;19913;-57
2022/12/13 02:21:45;;;;;;;;;;;-5.60;99.90;;;;;;5026538;28;19973;-58
2022/12/13 02:24:40;;;;;;;;;;;-5.50;99.90;;;;;;5022049;28;20004;-54
2022/12/13 02:27:08;;;;;;;;;;;-5.60;99.90;;;;;;5026915;28;19928;-55
2022/12/13 02:30:08;;;;;;;;;;;-5.50;99.90;;;;;;5026703;28;20025;-58
2022/12/13 02:32:41;;;;;;;;;;;-5.50;99.90;;;;;;5022363;28;20494;-55
2022/12/13 02:35:15;;;;;;;;;;;-5.50;99.90;;;;;;5029855;28;19987;-58
2022/12/13 02:38:01;;;;;;;;;;;-5.50;99.90;;;;;;5031175;28;19916;-57
2022/12/13 02:40:37;;;;;;;;;;;-5.50;99.90;;;;;;5024885;28;20341;-58
2022/12/13 02:43:08;;;;;;;;;;;-5.50;99.90;;;;;;5028337;28;19914;-58
2022/12/13 02:45:44;;;;;;;;;;;-5.50;99.90;;;;;;5038435;28;19913;-57
2022/12/13 02:48:10;;;;;;;;;;;-5.50;99.90;;;;;;5031108;28;19916;-58
2022/12/13 02:50:36;;;;;;;;;;;-5.50;99.90;;;;;;5045895;23;20403;-77
2022/12/13 02:53:03;;;;;;;;;;;-5.50;99.90;;;;;;5068314;28;19958;-76
2022/12/13 02:55:31;;;;;;;;;;;-5.50;99.90;;;;;;5058561;28;19912;-77
2022/12/13 02:57:56;;;;;;;;;;;-5.50;99.90;;;;;;5064905;28;19950;-76
2022/12/13 03:00:40;;;;;;;;;;;-5.50;99.90;;;;;;5064006;28;19909;-77
2022/12/13 03:03:22;;;;;;;;;;;-5.50;99.90;;;;;;5062459;28;19912;-76
2022/12/13 03:08:40;;;;;;;;;;;-5.50;99.90;;;;;;5069086;28;20007;-77
2022/12/13 03:11:05;;;;;;;;;;;-5.50;99.90;;;;;;5058136;28;19909;-77
2022/12/13 03:13:37;;;;;;;;;;;-5.50;99.90;;;;;;5052169;28;19932;-77
2022/12/13 03:16:14;;;;;;;;;;;-5.50;99.90;;;;;;5056896;28;19913;-77
2022/12/13 03:18:40;;;;;;;;;;;-5.50;99.90;;;;;;5063358;28;19971;-77
2022/12/13 03:21:10;;;;;;;;;;;-5.50;99.90;;;;;;5063711;28;20367;-76
2022/12/13 03:23:36;;;;;;;;;;;-5.50;99.90;;;;;;5046671;28;20371;-76
2022/12/13 03:26:14;;;;;;;;;;;-5.50;99.90;;;;;;5064216;28;19909;-77
2022/12/13 03:28:40;;;;;;;;;;;-5.40;99.90;;;;;;5056461;28;19917;-76
2022/12/13 03:31:05;;;;;;;;;;;-5.40;99.90;;;;;;5060375;28;19965;-77
2022/12/13 03:33:31;;;;;;;;;;;-5.40;99.90;;;;;;5063003;28;19962;-77
2022/12/13 03:35:57;;;;;;;;;;;-5.50;99.90;;;;;;5057331;28;19913;-77
2022/12/13 03:38:23;;;;;;;;;;;-5.40;99.90;;;;;;5062198;28;19908;-77
2022/12/13 03:40:53;;;;;;;;;;;-5.50;99.90;;;;;;5068981;28;19921;-76
2022/12/13 03:43:18;;;;;;;;;;;-5.50;99.90;;;;;;5064264;28;19909;-76
2022/12/13 03:45:44;;;;;;;;;;;-5.40;99.90;;;;;;5059201;28;20335;-76
2022/12/13 03:48:09;;;;;;;;;;;-5.40;99.90;;;;;;5066203;28;19921;-77
2022/12/13 03:50:34;;;;;;;;;;;-5.40;99.90;;;;;;5061977;28;20011;-77
2022/12/13 03:53:00;;;;;;;;;;;-5.50;99.90;;;;;;5050929;28;19909;-77
2022/12/13 03:55:26;;;;;;;;;;;-5.50;99.90;;;;;;5042186;28;20322;-77
2022/12/13 03:57:52;;;;;;;;;;;-5.50;99.90;;;;;;5062515;28;19913;-77
2022/12/13 04:00:17;;;;;;;;;;;-5.50;99.90;;;;;;5055553;28;20560;-77
2022/12/13 04:02:43;;;;;;;;;;;-5.40;99.90;;;;;;5040703;28;19913;-76
2022/12/13 04:05:08;;;;;;;;;;;-5.40;99.90;;;;;;5063335;28;19921;-76
2022/12/13 04:07:34;;;;;;;;;;;-5.40;99.90;;;;;;5056235;28;19923;-77
2022/12/13 04:09:59;;;;;;;;;;;-5.40;99.90;;;;;;5064379;28;19913;-77
2022/12/13 04:15:09;;;;;;;;;;;-5.40;99.90;;;;;;5063847;28;20050;-77
2022/12/13 04:17:34;;;;;;;;;;;-5.40;99.90;;;;;;5063069;28;19962;-76
2022/12/13 04:20:00;;;;;;;;;;;-5.30;99.90;;;;;;5061874;28;19916;-77
2022/12/13 04:22:25;;;;;;;;;;;-5.40;99.90;;;;;;5051554;28;20367;-77
2022/12/13 04:24:51;;;;;;;;;;;-5.40;99.90;;;;;;5064942;28;19909;-77
2022/12/13 04:29:45;;;;;;;;;;;-5.40;99.90;;;;;;5024293;28;19933;-57
2022/12/13 04:32:11;;;;;;;;;;;-5.40;99.90;;;;;;5019229;28;20299;-58
2022/12/13 04:34:36;;;;;;;;;;;-5.40;99.90;;;;;;5025209;28;20060;-57
2022/12/13 04:37:02;;;;;;;;;;;-5.40;99.90;;;;;;5017919;28;19922;-56
2022/12/13 04:39:27;;;;;;;;;;;-5.40;99.90;;;;;;5020995;28;19913;-54
2022/12/13 04:41:53;;;;;;;;;;;-5.40;99.90;;;;;;5020859;28;19922;-56
2022/12/13 04:44:18;;;;;;;;;;;-5.40;99.90;;;;;;5013313;28;20299;-53
2022/12/13 04:46:44;;;;;;;;;;;-5.30;99.90;;;;;;5020956;28;19920;-56
2022/12/13 04:49:09;;;;;;;;;;;-5.30;99.90;;;;;;5014899;28;19924;-55
2022/12/13 04:51:35;;;;;;;;;;;-5.30;99.90;;;;;;5021891;28;19913;-56
2022/12/13 04:54:00;;;;;;;;;;;-5.30;99.90;;;;;;5017633;28;20386;-56
2022/12/13 04:56:25;;;;;;;;;;;-5.30;99.90;;;;;;5022492;28;19968;-58
2022/12/13 04:58:51;;;;;;;;;;;-5.30;99.90;;;;;;5023764;28;19927;-56
2022/12/13 05:01:16;;;;;;;;;;;-5.30;99.90;;;;;;5013487;28;19913;-55
2022/12/13 05:03:42;;;;;;;;;;;-5.30;99.90;;;;;;5020527;28;20330;-57
2022/12/13 05:06:08;;;;;;;;;;;-5.20;99.90;;;;;;5016964;28;19924;-55
2022/12/13 05:08:35;;;;;;;;;;;-5.20;99.90;;;;;;5018340;28;19925;-57
2022/12/13 05:11:00;;;;;;;;;;;-5.10;99.90;;;;;;5017213;28;19913;-56
2022/12/13 05:13:26;;;;;;;;;;;-5.10;99.90;;;;;;5017329;28;19918;-56
2022/12/13 05:15:58;;;;;;;;;;;-5.10;99.90;;;;;;5020578;28;19924;-57
2022/12/13 05:18:24;;;;;;;;;;;-5.10;99.90;;;;;;5009248;28;19964;-58
2022/12/13 05:20:50;;;;;;;;;;;-5.10;99.90;;;;;;5020237;28;19952;-55
2022/12/13 05:23:19;;;;;;;;;;;-5.00;99.90;;;;;;5026295;28;20437;-57
2022/12/13 05:25:44;;;;;;;;;;;-5.00;99.90;;;;;;5020327;28;19913;-57
2022/12/13 05:28:10;;;;;;;;;;;-5.00;99.90;;;;;;5018006;28;19921;-56
2022/12/13 05:30:38;;;;;;;;;;;-5.00;99.90;;;;;;5018742;28;19980;-54
2022/12/13 05:33:04;;;;;;;;;;;-5.00;99.90;;;;;;5018014;28;19909;-57
2022/12/13 05:35:29;;;;;;;;;;;-5.00;99.90;;;;;;5019559;28;19913;-55
2022/12/13 05:37:55;;;;;;;;;;;-4.90;99.90;;;;;;5020645;28;19910;-56
2022/12/13 05:40:24;;;;;;;;;;;-4.90;99.90;;;;;;5020922;28;19996;-56
2022/12/13 05:42:50;;;;;;;;;;;-4.90;99.90;;;;;;5021131;28;19951;-57
2022/12/13 05:45:19;;;;;;;;;;;-4.90;99.90;;;;;;5018505;28;20002;-57
2022/12/13 05:47:45;;;;;;;;;;;-4.90;99.90;;;;;;5018674;28;20055;-55
2022/12/13 05:50:10;;;;;;;;;;;-4.90;99.90;;;;;;5020927;28;20003;-55
2022/12/13 05:52:36;;;;;;;;;;;-4.90;99.90;;;;;;5021930;28;19913;-57
2022/12/13 05:55:02;;;;;;;;;;;-4.80;99.90;;;;;;5020200;28;19909;-57
2022/12/13 05:57:27;;;;;;;;;;;-4.80;99.90;;;;;;5017613;28;19924;-54
2022/12/13 05:59:52;;;;;;;;;;;-4.70;99.90;;;;;;5020738;28;19929;-55
2022/12/13 06:02:18;;;;;;;;;;;-4.80;99.90;;;;;;5014078;28;19914;-57
2022/12/13 06:04:44;;;;;;;;;;;-4.70;99.90;;;;;;5022281;28;19967;-57
2022/12/13 06:07:10;;;;;;;;;;;-4.70;99.90;;;;;;5021726;28;19956;-55
2022/12/13 06:09:35;;;;;;;;;;;-4.70;99.90;;;;;;5019214;28;19952;-54
2022/12/13 06:12:00;;;;;;;;;;;-4.60;99.90;;;;;;5025586;28;19964;-53
2022/12/13 06:14:26;;;;;;;;;;;-4.60;99.90;;;;;;5021893;28;19988;-55
2022/12/13 06:16:51;;;;;;;;;;;-4.60;99.90;;;;;;5024194;28;20347;-57
2022/12/13 06:19:17;;;;;;;;;;;-4.60;99.90;;;;;;5021843;28;19928;-56
2022/12/13 06:21:43;;;;;;;;;;;-4.60;99.90;;;;;;5024848;28;19999;-56
2022/12/13 06:24:08;;;;;;;;;;;-4.60;99.90;;;;;;5021792;28;20634;-57
2022/12/13 06:26:34;;;;;;;;;;;-4.60;99.90;;;;;;5019813;28;20008;-57
2022/12/13 06:28:59;;;;;;;;;;;-4.60;99.90;;;;;;5023457;28;19924;-53
2022/12/13 06:31:24;;;;;;;;;;;-4.60;99.90;;;;;;5022827;28;19920;-58
2022/12/13 06:33:50;;;;;;;;;;;-4.50;99.90;;;;;;5022420;28;20265;-57
2022/12/13 06:36:15;;;;;;;;;;;-4.50;99.90;;;;;;5024632;28;19956;-56
2022/12/13 06:38:41;;;;;;;;;;;-4.50;99.90;;;;;;5024115;28;19914;-57
2022/12/13 06:41:11;;;;;;;;;;;-4.50;99.90;;;;;;5027960;28;19917;-56
2022/12/13 06:43:36;;;;;;;;;;;-4.50;99.90;;;;;;5022959;28;20000;-55
2022/12/13 06:46:03;;;;;;;;;;;-4.50;99.90;;;;;;5023465;28;19959;-57
2022/12/13 06:48:29;;;;;;;;;;;-4.50;99.90;;;;;;5016248;28;19922;-56
2022/12/13 06:50:54;;;;;;;;;;;-4.50;99.90;;;;;;5024770;28;19920;-57
2022/12/13 06:53:20;;;;;;;;;;;-4.40;99.90;;;;;;5022852;28;19914;-56
2022/12/13 06:55:45;;;;;;;;;;;-4.40;99.90;;;;;;5022829;28;19913;-54
2022/12/13 06:58:11;;;;;;;;;;;-4.40;99.90;;;;;;5024344;28;20136;-57
2022/12/13 07:00:36;;;;;;;;;;;-4.40;99.90;;;;;;5015639;28;20008;-55
2022/12/13 07:03:02;;;;;;;;;;;-4.30;99.90;;;;;;5012823;28;19920;-57
2022/12/13 07:05:27;;;;;;;;;;;-4.30;99.90;;;;;;5017161;28;20360;-55
2022/12/13 07:07:53;;;;;;;;;;;-4.30;99.90;;;;;;5018334;28;19948;-54
2022/12/13 07:10:18;;;;;;;;;;;-4.30;99.90;;;;;;5039216;28;19923;-53
2022/12/13 07:12:44;;;;;;;;;;;-4.30;99.90;;;;;;5014843;28;19913;-57
2022/12/13 07:15:09;;;;;;;;;;;-4.30;99.90;;;;;;5020348;28;19920;-57
2022/12/13 07:17:35;;;;;;;;;;;-4.30;99.90;;;;;;5022421;28;20004;-54
2022/12/13 07:20:06;;;;;;;;;;;-4.30;99.90;;;;;;5016429;28;19913;-56
2022/12/13 07:22:32;;;;;;;;;;;-4.30;99.90;;;;;;5035352;28;19920;-53
2022/12/13 07:24:57;;;;;;;;;;;-4.30;99.90;;;;;;5024799;28;19913;-55
2022/12/13 07:27:22;;;;;;;;;;;-4.30;99.90;;;;;;5019667;28;19961;-55
2022/12/13 07:29:48;;;;;;;;;;;-4.30;99.90;;;;;;5026663;28;19925;-58
2022/12/13 07:32:13;;;;;;;;;;;-4.20;99.90;;;;;;5013288;28;19913;-56
2022/12/13 07:34:39;;;;;;;;;;;-4.20;99.90;;;;;;5018683;28;19917;-57
2022/12/13 07:37:04;;;;;;;;;;;-4.20;99.90;;;;;;5012597;28;19913;-55
2022/12/13 07:39:31;;;;;;;;;;;-4.20;99.90;;;;;;5016429;28;19921;-54
2022/12/13 07:41:56;;;;;;;;;;;-4.20;99.90;;;;;;5025382;28;20415;-53
2022/12/13 07:44:22;;;;;;;;;;;-4.10;99.90;;;;;;5012143;28;19989;-56
2022/12/13 07:46:48;;;;;;;;;;;-4.10;99.90;;;;;;5026653;28;19936;-54
2022/12/13 07:49:13;;;;;;;;;;;-4.10;99.90;;;;;;5012684;28;19917;-54
2022/12/13 07:51:39;;;;;;;;;;;-4.10;99.90;;;;;;5027664;28;19920;-58
2022/12/13 07:54:07;;;;;;;;;;;-4.10;99.90;;;;;;5012296;28;19924;-56
2022/12/13 07:56:33;;;;;;;;;;;-4.10;99.90;;;;;;5027703;28;19916;-53
2022/12/13 07:58:58;;;;;;;;;;;-4.10;99.90;;;;;;5013972;28;20394;-55
2022/12/13 08:01:24;;;;;;;;;;;-4.10;99.90;;;;;;5016970;28;19913;-57
2022/12/13 08:03:49;;;;;;;;;;;-4.00;99.90;;;;;;5026575;28;19917;-58
2022/12/13 08:06:15;;;;;;;;;;;-4.00;99.90;;;;;;5019765;28;20596;-58
2022/12/13 08:08:40;;;;;;;;;;;-4.00;99.90;;;;;;5027137;28;19980;-56
2022/12/13 08:11:07;;;;;;;;;;;-4.00;99.90;;;;;;5019875;28;20452;-54
2022/12/13 08:13:33;;;;;;;;;;;-4.00;99.90;;;;;;5020703;28;20334;-56
2022/12/13 08:15:59;;;;;;;;;;;-4.00;99.90;;;;;;5024561;28;19909;-54
2022/12/13 08:18:25;;;;;;;;;;;-4.00;99.90;;;;;;5016390;28;19980;-54
2022/12/13 08:20:50;;;;;;;;;;;-3.90;99.90;;;;;;5023084;28;20326;-55
2022/12/13 08:23:16;;;;;;;;;;;-3.90;99.90;;;;;;5040262;28;19955;-58
2022/12/13 08:25:41;;;;;;;;;;;-3.90;99.90;;;;;;5021745;28;20383;-57
2022/12/13 08:28:07;;;;;;;;;;;-3.80;99.90;;;;;;5022539;28;19921;-56
2022/12/13 08:30:32;;;;;;;;;;;-3.80;99.90;;;;;;5021382;28;20328;-58
2022/12/13 08:32:58;;;;;;;;;;;-3.80;99.90;;;;;;5022114;28;19914;-56
2022/12/13 08:35:26;;;;;;;;;;;-3.80;99.90;;;;;;5022000;28;19949;-57
2022/12/13 08:37:51;;;;;;;;;;;-3.70;99.90;;;;;;5022201;28;19913;-56
2022/12/13 08:40:17;;;;;;;;;;;-3.70;99.90;;;;;;5024266;28;19913;-57
2022/12/13 08:42:42;;;;;;;;;;;-3.70;99.90;;;;;;5021028;28;20383;-57
2022/12/13 08:45:08;;;;;;;;;;;-3.70;99.90;;;;;;5016680;28;19913;-57
2022/12/13 08:47:33;;;;;;;;;;;-3.60;99.90;;;;;;5015358;28;19937;-56
2022/12/13 08:49:59;;;;;;;;;;;-3.60;99.90;;;;;;5024295;23;20360;-59
2022/12/13 08:52:24;;;;;;;;;;;-3.60;99.90;;;;;;5033471;28;20035;-58
2022/12/13 08:54:50;;;;;;;;;;;-3.60;99.90;;;;;;5040838;28;19913;-58
2022/12/13 08:57:16;;;;;;;;;;;-3.50;99.90;;;;;;5043968;28;20390;-59
2022/12/13 08:59:41;;;;;;;;;;;-3.50;99.90;;;;;;5037706;28;19944;-59
2022/12/13 09:02:10;;;;;;;;;;;-3.50;99.90;;;;;;5017258;28;19933;-58
2022/12/13 09:04:36;;;;;;;;;;;-3.40;99.90;;;;;;5019844;28;19910;-58
2022/12/13 09:07:01;;;;;;;;;;;-3.40;99.90;;;;;;5004528;28;19909;-58
2022/12/13 09:09:27;;;;;;;;;;;-3.40;99.90;;;;;;5011031;28;19922;-57
2022/12/13 09:11:53;;;;;;;;;;;-3.40;99.90;;;;;;5004625;28;19920;-58
2022/12/13 09:14:18;;;;;;;;;;;-3.40;99.90;;;;;;5003225;28;19999;-58
2022/12/13 09:16:44;;;;;;;;;;;-3.40;99.90;;;;;;5015526;28;19919;-59
2022/12/13 09:19:09;;;;;;;;;;;-3.40;99.90;;;;;;5022290;28;19948;-59
2022/12/13 09:21:35;;;;;;;;;;;-3.40;99.90;;;;;;5021805;28;19955;-58
2022/12/13 09:24:00;;;;;;;;;;;-3.30;99.90;;;;;;5004459;28;19913;-58
2022/12/13 09:26:26;;;;;;;;;;;-3.30;99.90;;;;;;5022294;28;19909;-59
2022/12/13 09:28:51;;;;;;;;;;;-3.30;99.90;;;;;;5013591;28;20273;-59
2022/12/13 09:31:17;;;;;;;;;;;-3.20;99.90;;;;;;5022650;28;19913;-59
2022/12/13 09:33:43;;;;;;;;;;;-3.20;99.90;;;;;;5020957;28;19909;-59
2022/12/13 09:36:10;;;;;;;;;;;-3.20;99.90;;;;;;5021546;28;20372;-60
2022/12/13 09:38:36;;;;;;;;;;;-3.10;99.90;;;;;;5014861;28;20418;-59
2022/12/13 09:41:06;;;;;;;;;;;-3.00;99.90;;;;;;5021965;28;19910;-59
2022/12/13 09:43:32;;;;;;;;;;;-3.00;99.90;;;;;;5014584;28;19936;-58
2022/12/13 09:45:58;;;;;;;;;;;-3.00;99.90;;;;;;5009898;28;19909;-60
2022/12/13 09:48:24;;;;;;;;;;;-2.90;99.90;;;;;;5012679;28;19953;-57
2022/12/13 09:50:50;;;;;;;;;;;-2.90;99.90;;;;;;5015813;28;20018;-57
2022/12/13 09:53:16;;;;;;;;;;;-2.90;99.90;;;;;;5003223;28;19910;-59
2022/12/13 09:55:47;;;;;;;;;;;-2.90;99.90;;;;;;5021288;28;19932;-59
2022/12/13 09:58:27;;;;;;;;;;;-2.80;99.90;;;;;;5024434;28;20279;-58
2022/12/13 10:00:54;;;;;;;;;;;-2.80;99.90;;;;;;5018309;28;19914;-59
2022/12/13 10:03:20;;;;;;;;;;;-2.80;99.90;;;;;;5016215;28;19939;-60
2022/12/13 10:05:52;;;;;;;;;;;-2.80;99.90;;;;;;5019004;28;19910;-59
2022/12/13 10:08:20;;;;;;;;;;;-2.70;99.90;;;;;;5006297;28;19959;-60
2022/12/13 10:10:48;;;;;;;;;;;-2.70;99.90;;;;;;5018762;28;19909;-58
2022/12/13 10:13:16;;;;;;;;;;;-2.60;99.90;;;;;;5012186;28;20403;-59
2022/12/13 10:15:45;;;;;;;;;;;-2.60;99.90;;;;;;5023604;28;19916;-60
2022/12/13 10:18:13;;;;;;;;;;;-2.60;99.90;;;;;;5000481;28;19997;-60
2022/12/13 10:20:40;;;;;;;;;;;-2.50;99.90;;;;;;5019687;28;19910;-61
2022/12/13 10:23:05;;;;;;;;;;;-2.50;99.90;;;;;;5024887;28;19909;-59
2022/12/13 10:25:42;;;;;;;;;;;-2.40;99.90;;;;;;5018105;28;20394;-58
2022/12/13 10:28:08;;;;;;;;;;;-2.40;99.90;;;;;;5021706;28;20015;-58
2022/12/13 10:30:39;;;;;;;;;;;-2.30;99.90;;;;;;5019872;28;20004;-61
2022/12/13 10:33:05;;;;;;;;;;;-2.30;99.90;;;;;;5021386;28;19920;-60
2022/12/13 10:35:33;;;;;;;;;;;-2.20;99.90;;;;;;5018718;28;19909;-60
2022/12/13 10:38:19;;;;;;;;;;;-2.20;99.90;;;;;;5021395;28;19913;-60
2022/12/13 10:40:47;;;;;;;;;;;-2.20;99.90;;;;;;5020949;28;20360;-60
2022/12/13 10:43:23;;;;;;;;;;;-2.10;99.90;;;;;;5003543;28;19948;-60
2022/12/13 10:45:54;;;;;;;;;;;-2.10;99.90;;;;;;5019232;28;19917;-60
2022/12/13 10:48:21;;;;;;;;;;;-2.00;99.90;;;;;;5021254;28;19917;-60
2022/12/13 10:50:55;;;;;;;;;;;-2.00;99.90;;;;;;5002088;28;20364;-59
2022/12/13 10:53:21;;;;;;;;;;;-2.00;99.90;;;;;;5021155;28;20425;-58
2022/12/13 10:55:52;;;;;;;;;;;-1.90;99.90;;;;;;5022602;28;19909;-57
2022/12/13 10:58:18;;;;;;;;;;;-1.90;99.90;;;;;;5023703;28;20012;-57
2022/12/13 11:00:45;;;;;;;;;;;-1.80;99.90;;;;;;5004957;28;19976;-58
2022/12/13 11:03:29;;;;;;;;;;;-1.90;99.90;;;;;;5007959;28;19956;-58
2022/12/13 11:06:04;;;;;;;;;;;-1.80;99.90;;;;;;5016869;28;20317;-58
2022/12/13 11:08:30;;;;;;;;;;;-1.80;99.90;;;;;;5028670;28;19913;-57
2022/12/13 11:11:00;;;;;;;;;;;-1.70;99.90;;;;;;5020924;28;20009;-58
2022/12/13 11:13:30;;;;;;;;;;;-1.70;99.90;;;;;;5020041;28;19916;-60
2022/12/13 11:15:56;;;;;;;;;;;-1.70;99.90;;;;;;5020652;28;19936;-60
2022/12/13 11:18:23;;;;;;;;;;;-1.60;99.90;;;;;;5019567;28;19909;-58
2022/12/13 11:20:53;;;;;;;;;;;-1.60;99.90;;;;;;5022089;28;20019;-58
2022/12/13 11:23:24;;;;;;;;;;;-1.60;99.90;;;;;;5025093;28;19909;-60
2022/12/13 11:25:54;;;;;;;;;;;-1.50;99.90;;;;;;5023371;28;19916;-57
2022/12/13 11:28:31;;;;;;;;;;;-1.40;99.90;;;;;;5023396;28;20357;-58
2022/12/13 11:31:09;;;;;;;;;;;-1.40;99.90;;;;;;5020277;28;19913;-60
2022/12/13 11:33:40;;;;;;;;;;;-1.30;99.90;;;;;;5022784;28;19909;-58
2022/12/13 11:36:24;;;;;;;;;;;-1.30;99.90;;;;;;5024101;28;19935;-57
2022/12/13 11:38:52;;;;;;;;;;;-1.30;99.90;;;;;;5023606;28;19909;-58
2022/12/13 11:41:47;;;;;;;;;;;-1.30;99.90;;;;;;5023807;28;20326;-57
2022/12/13 11:44:18;;;;;;;;;;;-1.20;99.90;;;;;;4981803;28;19916;-58
2022/12/13 11:46:46;;;;;;;;;;;-1.20;99.90;;;;;;5025412;28;19913;-57
2022/12/13 11:49:19;;;;;;;;;;;-1.20;99.90;;;;;;5020165;28;20050;-57
2022/12/13 11:51:50;;;;;;;;;;;-1.20;99.90;;;;;;5027132;28;20406;-57
2022/12/13 11:54:15;;;;;;;;;;;-1.10;99.90;;;;;;5001893;28;19917;-59
2022/12/13 11:56:42;;;;;;;;;;;-1.10;99.90;;;;;;5027909;28;19913;-58
2022/12/13 11:59:23;;;;;;;;;;;-1.10;99.90;;;;;;5002245;28;19913;-59
2022/12/13 12:01:52;;;;;;;;;;;-1.10;99.90;;;;;;5022431;28;19917;-57
2022/12/13 12:04:36;;;;;;;;;;;-1.10;99.90;;;;;;5010176;28;19914;-59
2022/12/13 12:07:20;;;;;;;;;;;-1.10;99.90;;;;;;5010030;28;19909;-59
2022/12/13 12:09:52;;;;;;;;;;;-1.10;99.90;;;;;;5022105;28;19921;-60
2022/12/13 12:12:31;;;;;;;;;;;-1.10;99.90;;;;;;5023644;28;19920;-59
2022/12/13 12:15:00;;;;;;;;;;;-1.00;99.90;;;;;;5016630;28;20126;-59
2022/12/13 12:17:27;;;;;;;;;;;-1.00;99.90;;;;;;5015888;28;20289;-59
2022/12/13 12:19:54;;;;;;;;;;;-0.90;99.90;;;;;;5020339;28;19913;-59
2022/12/13 12:22:32;;;;;;;;;;;-1.00;99.90;;;;;;5008746;28;20387;-59
2022/12/13 12:25:03;;;;;;;;;;;-0.90;99.90;;;;;;5013831;28;19936;-59
2022/12/13 12:27:35;;;;;;;;;;;-0.90;99.90;;;;;;5019546;28;19935;-59
2022/12/13 12:30:01;;;;;;;;;;;-0.80;99.90;;;;;;5022997;28;19917;-60
2022/12/13 12:33:02;;;;;;;;;;;-0.80;99.90;;;;;;5015935;28;19917;-59
2022/12/13 12:35:27;;;;;;;;;;;-0.70;99.90;;;;;;4968165;28;19918;-59
2022/12/13 12:38:10;;;;;;;;;;;-0.70;99.90;;;;;;5001660;28;20008;-58
2022/12/13 12:40:48;;;;;;;;;;;-0.70;99.90;;;;;;5025129;28;19910;-60
2022/12/13 12:43:13;;;;;;;;;;;-0.60;99.90;;;;;;5018004;28;19948;-59
2022/12/13 12:45:51;;;;;;;;;;;-0.60;99.90;;;;;;5016924;28;20334;-59
2022/12/13 12:48:35;;;;;;;;;;;-0.70;99.90;;;;;;5015742;28;19917;-59
2022/12/13 12:51:22;;;;;;;;;;;-0.70;99.90;;;;;;5012987;28;19933;-59
2022/12/13 12:54:02;;;;;;;;;;;-0.70;99.90;;;;;;5021655;28;19909;-59
2022/12/13 12:56:38;;;;;;;;;;;-0.70;99.90;;;;;;5013006;28;19913;-59
2022/12/13 12:59:10;;;;;;;;;;;-0.70;99.90;;;;;;5017250;28;19909;-60
2022/12/13 13:01:48;;;;;;;;;;;-0.60;99.90;;;;;;5013085;28;19913;-59
2022/12/13 13:04:15;;;;;;;;;;;-0.70;99.90;;;;;;5022288;28;19913;-59
2022/12/13 13:06:42;;;;;;;;;;;-0.70;99.90;;;;;;5015343;28;19920;-59
2022/12/13 13:09:09;;;;;;;;;;;-0.70;99.90;;;;;;5016806;28;20019;-59
2022/12/13 13:11:40;;;;;;;;;;;-0.70;99.90;;;;;;5015122;28;19917;-59
2022/12/13 13:14:25;;;;;;;;;;;-0.70;99.90;;;;;;5011336;28;20421;-59
2022/12/13 13:16:50;;;;;;;;;;;-0.70;99.90;;;;;;5019877;28;19956;-59
2022/12/13 13:19:16;;;;;;;;;;;-0.70;99.90;;;;;;5017538;28;20006;-59
2022/12/13 13:21:44;;;;;;;;;;;-0.70;99.90;;;;;;5000183;28;19968;-59
2022/12/13 13:24:13;;;;;;;;;;;-0.70;99.90;;;;;;5025557;28;20016;-59
2022/12/13 13:26:41;;;;;;;;;;;-0.70;99.90;;;;;;5015925;28;19913;-59
2022/12/13 13:29:22;;;;;;;;;;;-0.70;99.90;;;;;;5017774;28;19918;-58
2022/12/13 13:32:06;;;;;;;;;;;-0.60;99.90;;;;;;5022536;28;19909;-59
2022/12/13 13:34:33;;;;;;;;;;;-0.60;99.90;;;;;;5018329;28;19913;-59
2022/12/13 13:36:59;;;;;;;;;;;-0.70;99.90;;;;;;5004796;28;19914;-60
2022/12/13 13:39:25;;;;;;;;;;;-0.70;99.90;;;;;;5018608;28;19946;-57
2022/12/13 13:41:50;;;;;;;;;;;-0.70;99.90;;;;;;5021364;28;20337;-59
2022/12/13 13:44:54;;;;;;;;;;;-0.70;99.90;;;;;;5017607;28;19913;-59
2022/12/13 13:47:21;;;;;;;;;;;-0.70;99.90;;;;;;4908244;29;19911;-59
2022/12/13 13:49:58;;;;;;;;;;;-0.70;99.90;;;;;;4906146;29;19916;-60
2022/12/13 13:52:25;;;;;;;;;;;-0.70;99.90;;;;;;4969863;28;20983;-59
2022/12/13 13:54:57;;;;;;;;;;;-0.70;99.90;;;;;;5019587;28;20326;-59
2022/12/13 13:57:28;;;;;;;;;;;-0.70;99.90;;;;;;5018847;28;19914;-59
2022/12/13 14:00:02;;;;;;;;;;;-0.70;99.90;;;;;;5002954;28;19909;-58
2022/12/13 14:02:46;;;;;;;;;;;-0.70;99.90;;;;;;5020140;28;20429;-59
2022/12/13 14:05:25;;;;;;;;;;;-0.80;99.90;;;;;;5019412;28;20375;-59
2022/12/13 14:08:09;;;;;;;;;;;-0.80;99.90;;;;;;5002834;28;19923;-59
2022/12/13 14:10:50;;;;;;;;;;;-0.80;99.90;;;;;;5002759;28;20405;-61
2022/12/13 14:13:31;;;;;;;;;;;-0.80;99.90;;;;;;5007583;28;20291;-59
2022/12/13 14:16:02;;;;;;;;;;;-0.90;99.90;;;;;;5012601;28;19909;-59
2022/12/13 14:18:45;;;;;;;;;;;-0.80;99.90;;;;;;5013254;28;19933;-59
2022/12/13 14:21:23;;;;;;;;;;;-0.90;99.90;;;;;;5004998;28;19914;-59
2022/12/13 14:23:59;;;;;;;;;;;-0.90;99.90;;;;;;5024518;28;20363;-59
2022/12/13 14:26:27;;;;;;;;;;;-0.90;99.90;;;;;;5020374;28;19959;-56
2022/12/13 14:28:57;;;;;;;;;;;-0.90;99.90;;;;;;5000821;28;19925;-58
2022/12/13 14:31:24;;;;;;;;;;;-0.90;99.90;;;;;;5002607;28;19928;-59
2022/12/13 14:33:54;;;;;;;;;;;-0.90;99.90;;;;;;5024767;28;19960;-59